πŸ“Š DonnΓ©es MΓ©tΓ©o - Bordeaux

Total mesures

14,509

TempΓ©rature moyenne

18.9Β°C

Temp. Min/Max

2.9Β° / 42.4Β°

HumiditΓ© moyenne

64.8%

Pression moyenne

1014.8 hPa
enregistrements
ID Date/Heure Temp (Β°C) HumiditΓ© (%) Pression (hPa) Tendance LuminositΓ© (lux) Situation
6609 24/04/2026 22:15 15.8 86.0 1,016.4 β†’ Stable 0 pluvieux-gris
6608 24/04/2026 21:45 16.6 77.0 1,015.8 β†’ Stable 0 pluvieux-gris (approx.)
6607 24/04/2026 21:30 16.9 75.0 1,015.8 β†’ Stable 0 pluvieux-gris (approx.)
6606 24/04/2026 21:15 17.2 74.0 1,015.8 β†’ Stable 0 pluvieux-gris (approx.)
6605 24/04/2026 20:30 18.3 66.0 1,015.3 β†’ Stable 0 frais-stable
6604 24/04/2026 20:15 18.6 65.0 1,015.3 β†’ Stable 0 frais-stable
6603 24/04/2026 19:45 19.1 65.0 1,014.5 β†’ Stable 0 frais-stable
6602 24/04/2026 19:30 19.4 66.0 1,014.5 β†’ Stable 0 frais-stable
6601 24/04/2026 19:15 19.8 65.0 1,014.5 β†’ Stable 0 frais-stable
6600 24/04/2026 18:45 20.9 60.0 1,014.0 β†’ Stable 3,240 frais-stable
6599 24/04/2026 18:30 21.5 59.0 1,014.0 β†’ Stable 6,672 frais-stable
6598 24/04/2026 17:45 23.6 51.0 1,013.1 β†’ Stable 17,412 conditions-neutrales-ou-non-definies
6597 24/04/2026 17:30 24.3 45.0 1,013.1 β†’ Stable 22,404 confortablement-chaud (approx.)
6596 24/04/2026 17:15 26.4 34.0 1,013.1 β†’ Stable 27,588 conditions-neutrales-ou-non-definies
6595 24/04/2026 16:45 26.7 33.0 1,012.9 β†’ Stable 36,480 conditions-neutrales-ou-non-definies
6594 24/04/2026 16:15 26.9 33.0 1,012.9 β†’ Stable 53,244 conditions-neutrales-ou-non-definies
6593 24/04/2026 15:45 26.9 33.0 1,013.0 β†’ Stable 63,240 conditions-neutrales-ou-non-definies
6592 24/04/2026 15:15 26.9 35.0 1,013.0 β†’ Stable 71,940 confortablement-chaud (approx.)
6591 24/04/2026 14:45 26.6 36.0 1,013.4 β†’ Stable 80,088 confortablement-chaud (approx.)
6590 24/04/2026 14:15 26.1 37.0 1,013.4 β†’ Stable 88,524 confortablement-chaud (approx.)
6589 24/04/2026 13:45 25.6 37.0 1,014.0 β†’ Stable 93,888 confortablement-chaud (approx.)
6588 24/04/2026 13:15 25.4 36.0 1,013.9 β†’ Stable 97,596 confortablement-chaud (approx.)
6587 24/04/2026 12:45 24.6 37.0 1,014.4 β†’ Stable 99,996 confortablement-chaud (approx.)
6586 24/04/2026 12:15 24.2 39.0 1,014.4 β†’ Stable 99,996 confortablement-chaud (approx.)
6585 24/04/2026 11:45 23.5 39.0 1,014.7 β†’ Stable 99,348 conditions-neutrales-ou-non-definies
6584 24/04/2026 11:15 22.7 40.0 1,014.7 β†’ Stable 96,852 frais-stable
6583 24/04/2026 10:45 21.7 41.0 1,014.7 β†’ Stable 93,612 frais-stable
6582 24/04/2026 10:15 21.2 41.0 1,014.7 β†’ Stable 89,532 frais-stable
6581 24/04/2026 09:45 20.2 42.0 1,014.8 β†’ Stable 84,444 frais-stable
6580 24/04/2026 09:15 18.9 43.0 1,014.8 β†’ Stable 71,760 frais-stable
6579 24/04/2026 08:45 17.9 44.0 1,015.0 β†’ Stable 63,612 frais-stable
6578 24/04/2026 08:15 17.1 44.0 1,015.0 β†’ Stable 53,976 frais-stable
6577 24/04/2026 07:45 16.4 42.0 1,015.2 β†’ Stable 44,904 frais-stable
6576 24/04/2026 07:15 14.7 48.0 1,015.2 β†’ Stable 30,744 frais-stable
6575 24/04/2026 06:45 13.6 51.0 1,015.0 β†’ Stable 18,792 frais-stable
6574 24/04/2026 06:15 13.0 54.0 1,014.8 β†’ Stable 10,740 frais-stable
6573 24/04/2026 05:45 12.8 57.0 1,014.2 β†’ Stable 4,908 frais-stable
6572 24/04/2026 05:15 12.9 55.0 1,014.2 β†’ Stable 276 frais-stable
6571 24/04/2026 04:45 13.2 53.0 1,014.4 β†’ Stable 0 frais-stable
6570 24/04/2026 04:15 13.5 50.0 1,014.4 β†’ Stable 0 frais-stable
6569 24/04/2026 03:45 13.7 48.0 1,014.2 β†’ Stable 0 frais-stable
6568 24/04/2026 03:15 14.2 47.0 1,014.2 β†’ Stable 0 frais-stable
6567 24/04/2026 02:45 14.4 48.0 1,014.0 β†’ Stable 0 frais-stable
6566 24/04/2026 02:15 15.1 51.0 1,014.0 β†’ Stable 0 frais-stable
6565 24/04/2026 01:45 15.3 52.0 1,013.7 β†’ Stable 0 frais-stable
6564 24/04/2026 01:15 16.0 51.0 1,013.7 β†’ Stable 0 frais-stable
6563 24/04/2026 00:45 16.3 51.0 1,014.1 β†’ Stable 0 frais-stable
6562 24/04/2026 00:15 16.9 50.0 1,014.1 β†’ Stable 0 frais-stable
6561 23/04/2026 23:45 17.3 47.0 1,014.1 β†’ Stable 0 frais-stable
6560 23/04/2026 23:30 17.7 45.0 1,014.1 β†’ Stable 0 frais-stable
6559 23/04/2026 23:15 17.9 45.0 1,014.1 β†’ Stable 0 frais-stable
6558 23/04/2026 22:45 18.3 44.0 1,014.4 β†’ Stable 0 frais-stable
6557 23/04/2026 22:15 18.5 47.0 1,014.4 β†’ Stable 0 frais-stable
6556 23/04/2026 21:45 19.1 46.0 1,014.3 β†’ Stable 0 frais-stable
6555 23/04/2026 21:30 19.6 46.0 1,014.3 β†’ Stable 0 frais-stable
6554 23/04/2026 21:15 19.9 47.0 1,014.3 β†’ Stable 0 frais-stable
6553 23/04/2026 20:45 20.4 47.0 1,014.0 β†’ Stable 0 frais-stable
6552 23/04/2026 20:30 20.8 47.0 1,014.0 β†’ Stable 0 frais-stable
6551 23/04/2026 20:15 21.1 47.0 1,014.0 β†’ Stable 0 frais-stable
6550 23/04/2026 19:45 21.6 46.0 1,013.5 β†’ Stable 0 frais-stable
6549 23/04/2026 19:30 22.2 44.0 1,013.5 β†’ Stable 0 frais-stable
6548 23/04/2026 19:15 22.5 44.0 1,013.5 β†’ Stable 0 frais-stable
6547 23/04/2026 18:45 23.0 43.0 1,013.4 β†’ Stable 3,144 frais-stable
6546 23/04/2026 18:30 23.8 41.0 1,013.4 β†’ Stable 7,224 conditions-neutrales-ou-non-definies
6545 23/04/2026 18:15 24.1 42.0 1,013.4 β†’ Stable 11,760 confortablement-chaud (approx.)
6544 23/04/2026 17:45 24.8 42.0 1,013.3 β†’ Stable 20,832 confortablement-chaud (approx.)
6543 23/04/2026 17:15 25.3 40.0 1,013.3 β†’ Stable 32,412 confortablement-chaud (approx.)
6542 23/04/2026 16:45 25.5 39.0 1,013.3 β†’ Stable 42,504 conditions-neutrales-ou-non-definies
6541 23/04/2026 16:15 25.9 38.0 1,013.3 β†’ Stable 53,892 conditions-neutrales-ou-non-definies
6540 23/04/2026 15:45 26.0 38.0 1,013.7 β†’ Stable 63,336 conditions-neutrales-ou-non-definies
6539 23/04/2026 15:15 26.1 39.0 1,013.7 β†’ Stable 71,940 confortablement-chaud (approx.)
6538 23/04/2026 14:45 26.1 39.0 1,014.2 β†’ Stable 79,260 confortablement-chaud (approx.)
6537 23/04/2026 14:15 26.0 40.0 1,014.2 β†’ Stable 82,968 confortablement-chaud
6536 23/04/2026 13:15 24.5 46.0 1,014.8 β†’ Stable 44,172 confortablement-chaud (approx.)
6535 23/04/2026 12:45 23.5 48.0 1,015.2 β†’ Stable 32,496 conditions-neutrales-ou-non-definies
6534 23/04/2026 12:15 23.4 48.0 1,015.2 β†’ Stable 57,588 conditions-neutrales-ou-non-definies
6533 23/04/2026 11:45 23.1 48.0 1,015.6 β†’ Stable 59,172 conditions-neutrales-ou-non-definies
6532 23/04/2026 11:15 23.2 48.0 1,015.6 β†’ Stable 97,776 confortablement-chaud (approx.)
6531 23/04/2026 10:45 22.7 49.0 1,016.2 β†’ Stable 95,088 frais-stable
6530 23/04/2026 10:15 21.9 50.0 1,016.2 β†’ Stable 89,628 frais-stable
6529 23/04/2026 09:15 20.3 58.0 1,016.3 β†’ Stable 74,256 frais-stable
6528 23/04/2026 08:45 19.6 63.0 1,016.3 β†’ Stable 66,204 frais-stable
6527 23/04/2026 08:15 18.7 67.0 1,016.3 β†’ Stable 53,052 frais-stable
6526 23/04/2026 07:45 17.5 74.0 1,016.5 β†’ Stable 42,960 pluvieux-gris (approx.)
6525 23/04/2026 07:15 16.2 82.0 1,016.5 β†’ Stable 30,828 pluvieux-gris (approx.)
6524 23/04/2026 06:45 15.2 84.0 1,015.9 β†’ Stable 22,128 pluvieux-gris
6523 23/04/2026 06:15 14.3 87.0 1,015.9 β†’ Stable 11,208 pluvieux-gris
6522 23/04/2026 05:45 13.7 89.0 1,015.1 β†’ Stable 5,004 pluvieux-gris
6521 23/04/2026 05:15 13.7 88.0 1,015.1 β†’ Stable 180 pluvieux-gris
6520 23/04/2026 04:45 14.0 86.0 1,015.2 β†’ Stable 0 pluvieux-gris
6519 23/04/2026 04:15 14.2 84.0 1,015.2 β†’ Stable 0 pluvieux-gris
6518 23/04/2026 03:45 14.5 83.0 1,015.4 β†’ Stable 0 pluvieux-gris
6517 23/04/2026 03:15 14.7 82.0 1,015.4 β†’ Stable 0 pluvieux-gris
6516 23/04/2026 02:45 14.8 84.0 1,015.0 β†’ Stable 0 pluvieux-gris
6515 23/04/2026 02:15 14.6 84.0 1,015.0 β†’ Stable 0 pluvieux-gris
6514 23/04/2026 01:45 14.6 83.0 1,015.2 β†’ Stable 0 pluvieux-gris
6513 23/04/2026 01:15 14.7 85.0 1,015.2 β†’ Stable 0 pluvieux-gris
6512 23/04/2026 00:45 14.7 86.0 1,015.5 β†’ Stable 0 pluvieux-gris
6511 23/04/2026 00:15 14.7 87.0 1,015.5 β†’ Stable 0 pluvieux-gris
6510 22/04/2026 23:45 14.8 86.0 1,015.3 β†’ Stable 0 pluvieux-gris